LOT5VG EPPO-EPKK
Flight info
| Callsign | LOT5VG |
|---|---|
| Flight time | N/A |
| Altitude | 35000 |
| Route | OBOKU DCT POLON N133 NUBLI DCT KUKAM |
| Aircraft | B38M/M-SDE1FGHILORVWXY/HB1 |
Departure
| Time | 2026-05-01 14:18 |
|---|---|
| Airport | Poznań-Ławica Airport (EPPO) |
Arrival
| Time | N/A |
|---|---|
| Airport | Kraków John Paul II International Airport (EPKK) |
| Time | Latitude | Longitude | Altitude | Speed | Heading |
|---|---|---|---|---|---|
| 2026-05-01 14:03 | 52.41570 | 16.83130 | 304 ft | 0 kts | 195° |
| 2026-05-01 14:15 | 52.41573 | 16.83132 | 331 ft | 6 kts | 195° |
| 2026-05-01 14:15 | 52.41610 | 16.83147 | 305 ft | 3 kts | 193° |
| 2026-05-01 14:16 | 52.41619 | 16.83151 | 304 ft | 2 kts | 167° |
| 2026-05-01 14:16 | 52.41629 | 16.83145 | 306 ft | 0 kts | 110° |
| 2026-05-01 14:16 | 52.41610 | 16.83257 | 306 ft | 20 kts | 104° |
| 2026-05-01 14:16 | 52.41576 | 16.83525 | 303 ft | 27 kts | 99° |
| 2026-05-01 14:17 | 52.41564 | 16.83835 | 300 ft | 21 kts | 92° |
| 2026-05-01 14:17 | 52.41629 | 16.83972 | 301 ft | 17 kts | 25° |
| 2026-05-01 14:17 | 52.41758 | 16.84054 | 303 ft | 24 kts | 20° |
| 2026-05-01 14:17 | 52.41858 | 16.83904 | 305 ft | 42 kts | 287° |
| 2026-05-01 14:18 | 52.42035 | 16.82992 | 305 ft | 123 kts | 288° |
| 2026-05-01 14:18 | 52.42356 | 16.81326 | 438 ft | 173 kts | 291° |
| 2026-05-01 14:18 | 52.42712 | 16.79463 | 1463 ft | 165 kts | 291° |
| 2026-05-01 14:18 | 52.42942 | 16.78273 | 2155 ft | 169 kts | 290° |
| 2026-05-01 14:19 | 52.43458 | 16.75626 | 3217 ft | 196 kts | 290° |
| 2026-05-01 14:19 | 52.43901 | 16.73326 | 3883 ft | 226 kts | 290° |
| 2026-05-01 14:19 | 52.44396 | 16.70769 | 4758 ft | 245 kts | 290° |
| 2026-05-01 14:19 | 52.44918 | 16.68065 | 5651 ft | 258 kts | 290° |
| 2026-05-01 14:20 | 52.45465 | 16.65230 | 5948 ft | 262 kts | 290° |
| 2026-05-01 14:20 | 52.46557 | 16.59531 | 6044 ft | 264 kts | 290° |
| 2026-05-01 14:20 | 52.47112 | 16.56643 | 6675 ft | 263 kts | 291° |
| 2026-05-01 14:21 | 52.47484 | 16.53715 | 7821 ft | 270 kts | 273° |
| 2026-05-01 14:21 | 52.47072 | 16.50650 | 8745 ft | 284 kts | 245° |
| 2026-05-01 14:21 | 52.45809 | 16.48119 | 9635 ft | 297 kts | 217° |
| 2026-05-01 14:22 | 52.41940 | 16.45539 | 9965 ft | 303 kts | 176° |
| 2026-05-01 14:22 | 52.39919 | 16.46272 | 9990 ft | 297 kts | 150° |
| 2026-05-01 14:22 | 52.38292 | 16.48252 | 10003 ft | 290 kts | 126° |
| 2026-05-01 14:22 | 52.37316 | 16.51062 | 9993 ft | 282 kts | 103° |
| 2026-05-01 14:23 | 52.36905 | 16.54181 | 10135 ft | 282 kts | 98° |
| 2026-05-01 14:23 | 52.36478 | 16.57322 | 10264 ft | 284 kts | 99° |
| 2026-05-01 14:23 | 52.36037 | 16.60468 | 10308 ft | 284 kts | 99° |
| 2026-05-01 14:23 | 52.35587 | 16.63615 | 10314 ft | 284 kts | 99° |
| 2026-05-01 14:24 | 52.35132 | 16.66758 | 10315 ft | 284 kts | 99° |
| 2026-05-01 14:24 | 52.34675 | 16.69894 | 10320 ft | 284 kts | 99° |
| 2026-05-01 14:24 | 52.34215 | 16.73034 | 10323 ft | 284 kts | 99° |
| 2026-05-01 14:24 | 52.33756 | 16.76173 | 10323 ft | 284 kts | 99° |
| 2026-05-01 14:25 | 52.33022 | 16.79165 | 10291 ft | 290 kts | 124° |
| 2026-05-01 14:25 | 52.31401 | 16.81130 | 10285 ft | 300 kts | 158° |
| 2026-05-01 14:25 | 52.29319 | 16.81334 | 10296 ft | 307 kts | 193° |
| 2026-05-01 14:25 | 52.27485 | 16.79693 | 10304 ft | 308 kts | 227° |
| 2026-05-01 14:26 | 52.26461 | 16.76704 | 10304 ft | 302 kts | 261° |
| 2026-05-01 14:26 | 52.27704 | 16.70691 | 10331 ft | 286 kts | 317° |
| 2026-05-01 14:26 | 52.29082 | 16.68329 | 10326 ft | 287 kts | 320° |
| 2026-05-01 14:27 | 52.30624 | 16.66298 | 10319 ft | 284 kts | 328° |
| 2026-05-01 14:27 | 52.32293 | 16.64589 | 10298 ft | 279 kts | 343° |
| 2026-05-01 14:27 | 52.34162 | 16.64405 | 10300 ft | 269 kts | 17° |
| 2026-05-01 14:28 | 52.36339 | 16.68898 | 10315 ft | 275 kts | 85° |
| 2026-05-01 14:28 | 52.35964 | 16.72001 | 10321 ft | 285 kts | 112° |
| 2026-05-01 14:28 | 52.34761 | 16.74623 | 10326 ft | 294 kts | 133° |
| 2026-05-01 14:28 | 52.33295 | 16.76940 | 10318 ft | 287 kts | 130° |
| 2026-05-01 14:29 | 52.31705 | 16.78720 | 10315 ft | 274 kts | 161° |
| 2026-05-01 14:29 | 52.29885 | 16.78727 | 10295 ft | 258 kts | 200° |
| 2026-05-01 14:30 | 52.28863 | 16.71985 | 10420 ft | 232 kts | 302° |
| 2026-05-01 14:30 | 52.29392 | 16.69490 | 10297 ft | 241 kts | 278° |
| 2026-05-01 14:30 | 52.29347 | 16.66695 | 10311 ft | 244 kts | 273° |
| 2026-05-01 14:31 | 52.29517 | 16.61197 | 10332 ft | 244 kts | 280° |
| 2026-05-01 14:31 | 52.29733 | 16.58458 | 10327 ft | 243 kts | 283° |
| 2026-05-01 14:31 | 52.30008 | 16.55743 | 10307 ft | 242 kts | 284° |
| 2026-05-01 14:31 | 52.30326 | 16.53046 | 10324 ft | 242 kts | 287° |
| 2026-05-01 14:32 | 52.30966 | 16.50584 | 10286 ft | 231 kts | 314° |
| 2026-05-01 14:32 | 52.32199 | 16.49050 | 10295 ft | 221 kts | 343° |
| 2026-05-01 14:32 | 52.33689 | 16.48714 | 10316 ft | 216 kts | 10° |
| 2026-05-01 14:32 | 52.35071 | 16.49556 | 10308 ft | 213 kts | 35° |
| 2026-05-01 14:33 | 52.36075 | 16.51325 | 10319 ft | 215 kts | 59° |
| 2026-05-01 14:33 | 52.36548 | 16.53653 | 10320 ft | 220 kts | 81° |
| 2026-05-01 14:33 | 52.36450 | 16.56171 | 10326 ft | 225 kts | 96° |
| 2026-05-01 14:33 | 52.36162 | 16.58690 | 10334 ft | 226 kts | 97° |
| 2026-05-01 14:34 | 52.35846 | 16.61214 | 10325 ft | 226 kts | 97° |
| 2026-05-01 14:34 | 52.35512 | 16.63735 | 10324 ft | 226 kts | 98° |
| 2026-05-01 14:34 | 52.35169 | 16.66242 | 10314 ft | 226 kts | 98° |
| 2026-05-01 14:34 | 52.34819 | 16.68757 | 10323 ft | 226 kts | 98° |
| 2026-05-01 14:35 | 52.34462 | 16.71270 | 10310 ft | 226 kts | 98° |
| 2026-05-01 14:35 | 52.34109 | 16.73744 | 10325 ft | 226 kts | 98° |
| 2026-05-01 14:35 | 52.33747 | 16.76248 | 10322 ft | 227 kts | 99° |
| 2026-05-01 14:35 | 52.33032 | 16.78558 | 10286 ft | 234 kts | 130° |
| 2026-05-01 14:36 | 52.31620 | 16.79937 | 10297 ft | 244 kts | 163° |
| 2026-05-01 14:36 | 52.29914 | 16.79924 | 10314 ft | 251 kts | 195° |
| 2026-05-01 14:36 | 52.28414 | 16.78507 | 10317 ft | 252 kts | 227° |
| 2026-05-01 14:36 | 52.27524 | 16.76103 | 10321 ft | 247 kts | 258° |
| 2026-05-01 14:37 | 52.27434 | 16.73366 | 10324 ft | 240 kts | 284° |
| 2026-05-01 14:37 | 52.27766 | 16.70689 | 10338 ft | 241 kts | 286° |
| 2026-05-01 14:37 | 52.28115 | 16.68007 | 10320 ft | 241 kts | 287° |
| 2026-05-01 14:37 | 52.28479 | 16.65336 | 10325 ft | 241 kts | 287° |
| 2026-05-01 14:38 | 52.28850 | 16.62670 | 10325 ft | 241 kts | 287° |
| 2026-05-01 14:38 | 52.29227 | 16.59998 | 10318 ft | 241 kts | 288° |
| 2026-05-01 14:38 | 52.29606 | 16.57336 | 10319 ft | 241 kts | 288° |
| 2026-05-01 14:38 | 52.29987 | 16.54670 | 10312 ft | 241 kts | 288° |
| 2026-05-01 14:39 | 52.30397 | 16.52056 | 10310 ft | 238 kts | 296° |
| 2026-05-01 14:39 | 52.31323 | 16.49937 | 10291 ft | 226 kts | 326° |
| 2026-05-01 14:39 | 52.32708 | 16.48891 | 10328 ft | 219 kts | 354° |
| 2026-05-01 14:39 | 52.34198 | 16.49035 | 10308 ft | 214 kts | 19° |
| 2026-05-01 14:40 | 52.35456 | 16.50270 | 10321 ft | 213 kts | 44° |
| 2026-05-01 14:40 | 52.36278 | 16.52291 | 10337 ft | 217 kts | 66° |
| 2026-05-01 14:40 | 52.36536 | 16.54733 | 10327 ft | 222 kts | 89° |
| 2026-05-01 14:40 | 52.36312 | 16.57254 | 10332 ft | 225 kts | 96° |
| 2026-05-01 14:41 | 52.36017 | 16.59781 | 10331 ft | 226 kts | 97° |
| 2026-05-01 14:41 | 52.35697 | 16.62301 | 10326 ft | 226 kts | 97° |
| 2026-05-01 14:41 | 52.35361 | 16.64817 | 10322 ft | 226 kts | 98° |
| 2026-05-01 14:41 | 52.35015 | 16.67333 | 10317 ft | 226 kts | 98° |
| 2026-05-01 14:42 | 52.34664 | 16.69843 | 10317 ft | 227 kts | 98° |
| 2026-05-01 14:42 | 52.34308 | 16.72349 | 10320 ft | 226 kts | 98° |
| 2026-05-01 14:42 | 52.33949 | 16.74854 | 10327 ft | 226 kts | 98° |
| 2026-05-01 14:42 | 52.33526 | 16.77335 | 10314 ft | 230 kts | 110° |
| 2026-05-01 14:43 | 52.32474 | 16.79315 | 10282 ft | 239 kts | 144° |
| 2026-05-01 14:43 | 52.30869 | 16.80113 | 10307 ft | 248 kts | 177° |
| 2026-05-01 14:43 | 52.29196 | 16.79455 | 10317 ft | 252 kts | 210° |
| 2026-05-01 14:43 | 52.27941 | 16.77561 | 10318 ft | 250 kts | 240° |
| 2026-05-01 14:44 | 52.27385 | 16.74930 | 10325 ft | 244 kts | 271° |
| 2026-05-01 14:44 | 52.27911 | 16.69544 | 10323 ft | 241 kts | 287° |
| 2026-05-01 14:44 | 52.28268 | 16.66868 | 10316 ft | 241 kts | 287° |
| 2026-05-01 14:45 | 52.28635 | 16.64199 | 10323 ft | 241 kts | 287° |
| 2026-05-01 14:45 | 52.29387 | 16.58865 | 10326 ft | 241 kts | 287° |
| 2026-05-01 14:45 | 52.29767 | 16.56204 | 10316 ft | 241 kts | 287° |
| 2026-05-01 14:46 | 52.30148 | 16.53537 | 10321 ft | 241 kts | 287° |
| 2026-05-01 14:46 | 52.31897 | 16.49345 | 10315 ft | 222 kts | 339° |
| 2026-05-01 14:46 | 52.33372 | 16.48818 | 10326 ft | 217 kts | 5° |
| 2026-05-01 14:47 | 52.34797 | 16.49464 | 10296 ft | 213 kts | 31° |
| 2026-05-01 14:47 | 52.35883 | 16.51092 | 10327 ft | 215 kts | 54° |
| 2026-05-01 14:47 | 52.36471 | 16.53346 | 10331 ft | 219 kts | 76° |
| 2026-05-01 14:48 | 52.36187 | 16.58380 | 10338 ft | 226 kts | 96° |
| 2026-05-01 14:48 | 52.35880 | 16.60900 | 10325 ft | 226 kts | 97° |
| 2026-05-01 14:48 | 52.35208 | 16.65939 | 10318 ft | 227 kts | 98° |
| 2026-05-01 14:49 | 52.34506 | 16.70960 | 10313 ft | 227 kts | 98° |
| 2026-05-01 14:49 | 52.33792 | 16.75948 | 10322 ft | 227 kts | 98° |
| 2026-05-01 14:50 | 52.32771 | 16.78961 | 10285 ft | 237 kts | 136° |
| 2026-05-01 14:50 | 52.28567 | 16.78737 | 10317 ft | 252 kts | 223° |
| 2026-05-01 14:51 | 52.27590 | 16.76424 | 10317 ft | 248 kts | 254° |
| 2026-05-01 14:51 | 52.27721 | 16.71011 | 10337 ft | 241 kts | 286° |
| 2026-05-01 14:52 | 52.28433 | 16.65662 | 10322 ft | 241 kts | 287° |
| 2026-05-01 14:52 | 52.28803 | 16.62997 | 10322 ft | 241 kts | 288° |
| 2026-05-01 14:52 | 52.29557 | 16.57668 | 10319 ft | 241 kts | 288° |
| 2026-05-01 14:53 | 52.29939 | 16.55005 | 10314 ft | 241 kts | 288° |
| 2026-05-01 14:53 | 52.30335 | 16.52351 | 10314 ft | 239 kts | 293° |
| 2026-05-01 14:53 | 52.31189 | 16.50132 | 10289 ft | 227 kts | 324° |